createdAt,value
2023-05-13T00:00:46.722Z,100249.94
2023-05-13T00:03:13.201Z,100258.19
2023-05-13T00:05:40.404Z,100254.13
2023-05-13T00:08:07.498Z,100250.28
2023-05-13T00:10:34.613Z,100245.53
2023-05-13T00:13:01.560Z,100248.19
2023-05-13T00:15:28.732Z,100237.97
2023-05-13T00:17:55.219Z,100247.72
2023-05-13T00:20:21.915Z,100252.38
2023-05-13T00:22:48.820Z,100247.03
2023-05-13T00:25:15.523Z,100251.78
2023-05-13T00:27:43.005Z,100251.00
2023-05-13T00:30:14.098Z,100243.56
2023-05-13T00:32:42.028Z,100246.81
2023-05-13T00:35:08.990Z,100237.16
2023-05-13T00:37:35.848Z,100239.38
2023-05-13T00:40:02.317Z,100242.00
2023-05-13T00:42:28.817Z,100244.19
2023-05-13T00:44:55.269Z,100244.53
2023-05-13T00:47:22.263Z,100250.59
2023-05-13T00:49:48.794Z,100244.66
2023-05-13T00:52:15.207Z,100242.88
2023-05-13T00:54:41.633Z,100239.03
2023-05-13T00:57:08.192Z,100244.34
2023-05-13T00:59:34.676Z,100237.16
2023-05-13T01:02:14.701Z,100244.09
2023-05-13T01:04:47.666Z,100239.53
2023-05-13T01:07:45.052Z,100245.78
2023-05-13T01:10:23.419Z,100243.81
2023-05-13T01:12:54.032Z,100243.22
2023-05-13T01:15:25.501Z,100251.75
2023-05-13T01:18:09.868Z,100249.19
2023-05-13T01:20:38.311Z,100254.59
2023-05-13T01:23:06.262Z,100264.22
2023-05-13T01:25:32.793Z,100276.16
2023-05-13T01:27:59.558Z,100269.13
2023-05-13T01:30:26.693Z,100274.41
2023-05-13T01:32:53.623Z,100276.84
2023-05-13T01:35:21.119Z,100281.31
2023-05-13T01:37:48.866Z,100278.88
2023-05-13T01:40:31.223Z,100282.81
2023-05-13T01:42:59.447Z,100278.25
2023-05-13T01:45:28.658Z,100287.41
2023-05-13T01:47:55.395Z,100284.97
2023-05-13T01:50:22.344Z,100290.59
2023-05-13T01:52:49.009Z,100284.56
2023-05-13T01:55:15.934Z,100281.28
2023-05-13T02:00:38.639Z,100286.91
2023-05-13T02:03:06.376Z,100286.13
2023-05-13T02:05:33.465Z,100291.06
2023-05-13T02:08:00.187Z,100291.91
2023-05-13T02:10:26.895Z,100286.72
2023-05-13T02:12:53.599Z,100288.50
2023-05-13T02:15:20.390Z,100287.25
2023-05-13T02:17:47.576Z,100287.91
2023-05-13T02:20:15.129Z,100281.59
2023-05-13T02:22:42.438Z,100281.75
2023-05-13T02:25:09.853Z,100287.00
2023-05-13T02:27:37.209Z,100284.56
2023-05-13T02:30:04.602Z,100286.03
2023-05-13T02:32:31.847Z,100290.28
2023-05-13T02:34:58.752Z,100289.94
2023-05-13T02:37:26.855Z,100290.13
2023-05-13T02:39:53.914Z,100279.50
2023-05-13T02:42:21.100Z,100286.88
2023-05-13T02:44:48.561Z,100288.34
2023-05-13T02:47:15.296Z,100291.47
2023-05-13T02:49:42.330Z,100286.41
2023-05-13T02:52:09.078Z,100291.97
2023-05-13T02:54:35.552Z,100289.66
2023-05-13T02:57:02.186Z,100295.41
2023-05-13T02:59:28.700Z,100292.44
2023-05-13T03:01:55.213Z,100295.88
2023-05-13T03:04:22.126Z,100287.22
2023-05-13T03:06:49.587Z,100290.16
2023-05-13T03:09:16.771Z,100295.06
2023-05-13T03:11:43.252Z,100292.44
2023-05-13T03:14:09.900Z,100292.44
2023-05-13T03:16:36.693Z,100287.06
2023-05-13T03:19:03.651Z,100291.00
2023-05-13T03:21:30.209Z,100289.34
2023-05-13T03:23:56.727Z,100288.38
2023-05-13T03:26:23.826Z,100294.09
2023-05-13T03:28:50.313Z,100301.94
2023-05-13T03:31:16.828Z,100295.91
2023-05-13T03:33:43.623Z,100294.91
2023-05-13T03:36:10.353Z,100293.09
2023-05-13T03:38:36.984Z,100306.00
2023-05-13T03:41:03.705Z,100297.97
2023-05-13T03:43:31.242Z,100300.94
2023-05-13T03:45:57.838Z,100302.56
2023-05-13T03:48:24.376Z,100306.66
2023-05-13T03:50:53.035Z,100309.72
2023-05-13T03:53:19.765Z,100303.69
2023-05-13T03:55:46.387Z,100306.63
2023-05-13T03:58:17.119Z,100307.59
2023-05-13T04:00:46.738Z,100311.34
2023-05-13T04:03:14.399Z,100311.00
2023-05-13T04:05:41.020Z,100315.91
2023-05-13T04:08:07.905Z,100316.22
2023-05-13T04:10:34.499Z,100315.25
2023-05-13T04:13:01.061Z,100315.41
2023-05-13T04:15:27.694Z,100323.53
2023-05-13T04:17:54.616Z,100311.28
2023-05-13T04:20:21.324Z,100322.81
2023-05-13T04:22:48.704Z,100317.25
2023-05-13T04:25:15.721Z,100321.66
2023-05-13T04:27:42.432Z,100319.16
2023-05-13T04:30:09.748Z,100320.94
2023-05-13T04:32:37.052Z,100321.69
2023-05-13T04:35:03.937Z,100318.91
2023-05-13T04:37:31.509Z,100323.13
2023-05-13T04:40:00.871Z,100333.09
2023-05-13T04:42:27.509Z,100328.69
2023-05-13T04:44:54.254Z,100333.19
2023-05-13T04:47:20.840Z,100340.56
2023-05-13T04:49:48.725Z,100329.38
2023-05-13T04:52:15.874Z,100338.44
2023-05-13T04:54:42.730Z,100329.22
2023-05-13T04:57:09.287Z,100334.66
2023-05-13T04:59:35.898Z,100343.34
2023-05-13T05:02:02.552Z,100343.00
2023-05-13T05:04:29.273Z,100348.09
2023-05-13T05:06:55.891Z,100345.59
2023-05-13T05:09:23.446Z,100359.41
2023-05-13T05:11:50.760Z,100358.34
2023-05-13T05:14:17.597Z,100353.09
2023-05-13T05:16:44.453Z,100356.63
2023-05-13T05:19:11.112Z,100360.41
2023-05-13T05:21:38.106Z,100362.50
2023-05-13T05:24:05.940Z,100354.50
2023-05-13T05:26:32.379Z,100359.69
2023-05-13T05:28:58.922Z,100356.88
2023-05-13T05:31:27.639Z,100354.63
2023-05-13T05:33:54.339Z,100360.00
2023-05-13T05:36:20.818Z,100358.31
2023-05-13T05:38:47.449Z,100365.44
2023-05-13T05:41:13.950Z,100349.38
2023-05-13T05:43:40.481Z,100360.69
2023-05-13T05:46:07.608Z,100361.41
2023-05-13T05:48:34.878Z,100363.28
2023-05-13T05:51:02.214Z,100367.34
2023-05-13T05:53:28.919Z,100366.69
2023-05-13T05:55:56.382Z,100368.16
2023-05-13T05:58:23.130Z,100369.38
2023-05-13T06:00:49.661Z,100363.47
2023-05-13T06:03:16.277Z,100359.31
2023-05-13T06:05:43.050Z,100361.66
2023-05-13T06:08:09.732Z,100366.47
2023-05-13T06:10:36.375Z,100352.72
2023-05-13T06:13:03.025Z,100358.47
2023-05-13T06:15:29.758Z,100359.63
2023-05-13T06:17:57.048Z,100354.88
2023-05-13T06:20:24.074Z,100359.44
2023-05-13T06:22:50.759Z,100357.44
2023-05-13T06:25:18.422Z,100356.53
2023-05-13T06:27:45.013Z,100366.13
2023-05-13T06:30:11.718Z,100361.06
2023-05-13T06:32:41.003Z,100359.88
2023-05-13T06:35:14.136Z,100365.69
2023-05-13T06:37:40.860Z,100369.50
2023-05-13T06:40:08.069Z,100363.28
2023-05-13T06:42:39.711Z,100368.72
2023-05-13T06:45:08.215Z,100366.34
2023-05-13T06:47:35.542Z,100369.63
2023-05-13T06:50:03.360Z,100364.94
2023-05-13T06:52:31.568Z,100366.03
2023-05-13T06:54:59.911Z,100362.31
2023-05-13T06:57:38.841Z,100359.69
2023-05-13T07:00:09.254Z,100362.72
2023-05-13T07:02:36.355Z,100357.09
2023-05-13T07:05:03.250Z,100358.88
2023-05-13T07:07:29.888Z,100364.88
2023-05-13T07:09:56.540Z,100365.16
2023-05-13T07:12:23.188Z,100354.81
2023-05-13T07:14:49.920Z,100361.50
2023-05-13T07:17:17.471Z,100357.19
2023-05-13T07:19:45.119Z,100350.09
2023-05-13T07:22:12.041Z,100349.53
2023-05-13T07:24:38.830Z,100346.94
2023-05-13T07:27:05.649Z,100352.25
2023-05-13T07:29:33.602Z,100349.63
2023-05-13T07:32:04.846Z,100356.84
2023-05-13T07:34:31.365Z,100354.91
2023-05-13T07:36:58.575Z,100346.00
2023-05-13T07:39:25.487Z,100343.25
2023-05-13T07:41:52.135Z,100342.28
2023-05-13T07:44:19.364Z,100347.34
2023-05-13T07:46:46.020Z,100350.53
2023-05-13T07:49:12.589Z,100340.47
2023-05-13T07:51:39.670Z,100341.81
2023-05-13T07:54:06.153Z,100341.38
2023-05-13T07:56:32.905Z,100335.03
2023-05-13T07:59:00.594Z,100332.78
2023-05-13T08:01:27.312Z,100332.63
2023-05-13T08:03:54.004Z,100325.78
2023-05-13T08:06:20.781Z,100330.72
2023-05-13T08:08:47.385Z,100335.97
2023-05-13T08:11:13.912Z,100324.13
2023-05-13T08:13:40.540Z,100323.91
2023-05-13T08:16:07.477Z,100334.31
2023-05-13T08:18:34.151Z,100329.69
2023-05-13T08:21:00.816Z,100324.13
2023-05-13T08:23:40.390Z,100324.00
2023-05-13T08:26:10.575Z,100316.94
2023-05-13T08:28:38.065Z,100317.97
2023-05-13T08:31:04.991Z,100310.69
2023-05-13T08:33:32.560Z,100317.34
2023-05-13T08:36:00.896Z,100324.16
2023-05-13T08:38:27.481Z,100322.50
2023-05-13T08:40:54.222Z,100314.28
2023-05-13T08:43:23.954Z,100317.66
2023-05-13T08:45:53.524Z,100312.16
2023-05-13T08:48:20.495Z,100314.63
2023-05-13T08:50:48.664Z,100322.28
2023-05-13T08:53:16.998Z,100317.22
2023-05-13T08:55:43.639Z,100314.47
2023-05-13T08:58:10.230Z,100308.28
2023-05-13T09:00:36.911Z,100320.81
2023-05-13T09:03:03.720Z,100314.84
2023-05-13T09:05:31.995Z,100313.34
2023-05-13T09:07:58.926Z,100320.84
2023-05-13T09:10:25.433Z,100316.59
2023-05-13T09:12:55.478Z,100316.50
2023-05-13T09:15:24.710Z,100321.41
2023-05-13T09:17:55.174Z,100311.19
2023-05-13T09:20:22.953Z,100308.88
2023-05-13T09:23:10.592Z,100315.16
2023-05-13T09:25:38.579Z,100314.78
2023-05-13T09:28:06.578Z,100314.03
2023-05-13T09:30:40.144Z,100311.16
2023-05-13T09:33:13.898Z,100317.22
2023-05-13T09:35:42.462Z,100314.28
2023-05-13T09:38:14.950Z,100322.81
2023-05-13T09:40:42.296Z,100320.72
2023-05-13T09:43:09.189Z,100320.34
2023-05-13T09:45:36.203Z,100312.31
2023-05-13T09:48:03.398Z,100316.66
2023-05-13T09:50:31.411Z,100308.34
2023-05-13T09:52:57.962Z,100309.69
2023-05-13T09:55:24.512Z,100314.75
2023-05-13T09:57:53.214Z,100298.34
2023-05-13T10:00:31.730Z,100308.59
2023-05-13T10:03:01.128Z,100308.38
2023-05-13T10:05:27.819Z,100311.34
2023-05-13T10:07:55.298Z,100300.19
2023-05-13T10:10:22.149Z,100300.44
2023-05-13T10:12:49.538Z,100304.06
2023-05-13T10:15:16.606Z,100299.97
2023-05-13T10:17:44.866Z,100301.28
2023-05-13T10:20:12.102Z,100302.88
2023-05-13T10:22:39.125Z,100293.34
2023-05-13T10:25:06.467Z,100293.81
2023-05-13T10:27:33.925Z,100295.88
2023-05-13T10:30:03.510Z,100301.91
2023-05-13T10:32:31.171Z,100295.66
2023-05-13T10:35:03.158Z,100304.06
2023-05-13T10:38:01.798Z,100298.00
2023-05-13T10:40:47.317Z,100297.66
2023-05-13T10:43:22.007Z,100295.50
2023-05-13T10:45:50.351Z,100298.56
2023-05-13T10:48:18.599Z,100294.03
2023-05-13T10:50:56.867Z,100298.78
2023-05-13T10:53:25.809Z,100304.09
2023-05-13T10:55:54.317Z,100300.97
2023-05-13T10:58:22.560Z,100303.16
2023-05-13T11:01:02.365Z,100305.72
2023-05-13T11:03:30.043Z,100316.78
2023-05-13T11:06:17.709Z,100320.09
2023-05-13T11:08:49.881Z,100324.63
2023-05-13T11:11:22.737Z,100323.00
2023-05-13T11:13:53.785Z,100336.63
2023-05-13T11:16:21.163Z,100341.16
2023-05-13T11:18:47.891Z,100350.59
2023-05-13T11:21:14.720Z,100353.44
2023-05-13T11:23:52.115Z,100354.31
2023-05-13T11:26:20.146Z,100349.72
2023-05-13T11:28:58.230Z,100346.88
2023-05-13T11:31:26.985Z,100357.03
2023-05-13T11:34:07.178Z,100356.53
2023-05-13T11:36:35.133Z,100356.69
2023-05-13T11:39:13.789Z,100359.84
2023-05-13T11:41:42.862Z,100350.88
2023-05-13T11:44:11.203Z,100359.50
2023-05-13T11:46:37.823Z,100354.56
2023-05-13T11:49:07.094Z,100356.75
2023-05-13T11:51:34.062Z,100358.03
2023-05-13T11:54:04.023Z,100359.97
2023-05-13T11:56:30.961Z,100364.44
2023-05-13T11:59:14.513Z,100358.44
2023-05-13T12:01:41.400Z,100360.50
2023-05-13T12:04:08.589Z,100361.31
2023-05-13T12:06:36.222Z,100355.69
2023-05-13T12:09:07.113Z,100360.91
2023-05-13T12:11:33.817Z,100361.69
2023-05-13T12:14:00.750Z,100371.41
2023-05-13T12:16:28.751Z,100364.94
2023-05-13T12:19:06.374Z,100362.13
2023-05-13T12:21:34.463Z,100366.16
2023-05-13T12:24:01.094Z,100369.41
2023-05-13T12:26:27.619Z,100364.97
2023-05-13T12:29:00.396Z,100367.75
2023-05-13T12:31:27.452Z,100372.63
2023-05-13T12:33:54.043Z,100381.09
2023-05-13T12:36:26.155Z,100369.00
2023-05-13T12:39:00.945Z,100372.66
2023-05-13T12:41:30.683Z,100385.94
2023-05-13T12:44:08.303Z,100375.84
2023-05-13T12:46:35.283Z,100375.03
2023-05-13T12:49:04.094Z,100378.66
2023-05-13T12:51:30.805Z,100386.31
2023-05-13T12:53:59.349Z,100381.47
2023-05-13T12:56:29.161Z,100393.56
2023-05-13T12:58:55.895Z,100387.53
2023-05-13T13:01:22.968Z,100383.09
2023-05-13T13:03:50.163Z,100375.44
2023-05-13T13:06:17.395Z,100383.91
2023-05-13T13:08:43.837Z,100374.22
2023-05-13T13:11:10.733Z,100381.47
2023-05-13T13:13:39.217Z,100383.03
2023-05-13T13:16:06.431Z,100381.81
2023-05-13T13:18:33.105Z,100381.47
2023-05-13T13:20:59.721Z,100388.31
2023-05-13T13:23:26.472Z,100371.03
2023-05-13T13:25:53.021Z,100374.66
2023-05-13T13:28:19.635Z,100369.81
2023-05-13T13:30:47.354Z,100378.66
2023-05-13T13:33:15.641Z,100375.81
2023-05-13T13:35:47.143Z,100383.91
2023-05-13T13:38:14.209Z,100381.47
2023-05-13T13:40:40.963Z,100372.94
2023-05-13T13:43:07.703Z,100391.88
2023-05-13T13:45:34.886Z,100382.03
2023-05-13T13:48:01.615Z,100380.84
2023-05-13T13:50:28.497Z,100380.19
2023-05-13T13:52:55.156Z,100382.19
2023-05-13T13:55:23.574Z,100376.56
2023-05-13T13:57:50.791Z,100379.72
2023-05-13T14:00:17.960Z,100379.78
2023-05-13T14:02:45.006Z,100375.25
2023-05-13T14:05:12.747Z,100383.63
2023-05-13T14:07:39.502Z,100388.88
2023-05-13T14:10:06.937Z,100379.47
2023-05-13T14:12:35.726Z,100380.31
2023-05-13T14:15:02.882Z,100370.69
2023-05-13T14:17:29.663Z,100372.25
2023-05-13T14:19:56.182Z,100376.53
2023-05-13T14:22:24.237Z,100379.81
2023-05-13T14:24:54.118Z,100378.09
2023-05-13T14:27:21.625Z,100383.28
2023-05-13T14:29:48.862Z,100381.84
2023-05-13T14:32:15.473Z,100382.53
2023-05-13T14:34:42.498Z,100384.38
2023-05-13T14:37:09.140Z,100385.44
2023-05-13T14:39:35.913Z,100388.09
2023-05-13T14:42:04.550Z,100382.38
2023-05-13T14:44:32.412Z,100379.22
2023-05-13T14:46:59.084Z,100387.31
2023-05-13T14:49:26.793Z,100381.69
2023-05-13T14:51:54.013Z,100381.38
2023-05-13T14:54:21.218Z,100384.59
2023-05-13T14:56:47.771Z,100380.50
2023-05-13T14:59:14.996Z,100380.50
2023-05-13T15:01:42.135Z,100379.81
2023-05-13T15:04:08.731Z,100374.38
2023-05-13T15:06:37.115Z,100384.91
2023-05-13T15:09:03.837Z,100376.22
2023-05-13T15:11:30.458Z,100374.44
2023-05-13T15:13:57.186Z,100376.03
2023-05-13T15:16:23.770Z,100374.94
2023-05-13T15:18:50.838Z,100370.53
2023-05-13T15:21:17.549Z,100375.44
2023-05-13T15:23:44.173Z,100375.09
2023-05-13T15:26:10.719Z,100376.56
2023-05-13T15:28:37.868Z,100370.94
2023-05-13T15:31:05.871Z,100372.94
2023-05-13T15:33:32.859Z,100378.09
2023-05-13T15:36:00.038Z,100384.44
2023-05-13T15:38:27.427Z,100376.94
2023-05-13T15:40:54.026Z,100389.97
2023-05-13T15:43:20.823Z,100390.28
2023-05-13T15:45:47.656Z,100386.44
2023-05-13T15:48:14.251Z,100388.50
2023-05-13T15:50:41.039Z,100377.59
2023-05-13T15:53:08.116Z,100386.78
2023-05-13T15:55:36.864Z,100378.69
2023-05-13T15:58:03.550Z,100373.53
2023-05-13T16:00:30.166Z,100368.88
2023-05-13T16:02:56.678Z,100366.44
2023-05-13T16:05:23.253Z,100352.63
2023-05-13T16:07:49.985Z,100354.19
2023-05-13T16:10:16.829Z,100355.28
2023-05-13T16:12:43.382Z,100351.75
2023-05-13T16:15:11.125Z,100352.06
2023-05-13T16:17:37.887Z,100353.75
2023-05-13T16:20:05.204Z,100359.41
2023-05-13T16:22:33.765Z,100355.00
2023-05-13T16:25:02.476Z,100359.84
2023-05-13T16:27:29.378Z,100344.66
2023-05-13T16:29:57.503Z,100347.88
2023-05-13T16:32:24.763Z,100349.06
2023-05-13T16:34:52.193Z,100344.75
2023-05-13T16:37:19.291Z,100347.69
2023-05-13T16:39:45.983Z,100345.63
2023-05-13T16:42:12.570Z,100339.84
2023-05-13T16:44:39.128Z,100334.72
2023-05-13T16:47:11.083Z,100341.66
2023-05-13T16:49:37.618Z,100342.38
2023-05-13T16:52:04.828Z,100330.72
2023-05-13T16:54:31.840Z,100331.25
2023-05-13T16:56:58.693Z,100347.41
2023-05-13T16:59:27.721Z,100354.91
2023-05-13T17:01:54.504Z,100348.34
2023-05-13T17:04:21.252Z,100352.97
2023-05-13T17:06:47.959Z,100351.72
2023-05-13T17:09:27.575Z,100356.41
2023-05-13T17:11:54.703Z,100347.47
2023-05-13T17:14:21.897Z,100345.06
2023-05-13T17:16:48.940Z,100343.50
2023-05-13T17:19:15.582Z,100330.25
2023-05-13T17:21:42.173Z,100339.91
2023-05-13T17:24:09.726Z,100344.41
2023-05-13T17:26:38.583Z,100335.56
2023-05-13T17:29:06.101Z,100334.75
2023-05-13T17:31:33.709Z,100333.75
2023-05-13T17:34:00.471Z,100332.47
2023-05-13T17:36:27.663Z,100333.66
2023-05-13T17:38:54.315Z,100333.75
2023-05-13T17:41:21.780Z,100334.19
2023-05-13T17:43:48.467Z,100331.38
2023-05-13T17:46:15.035Z,100340.50
2023-05-13T17:48:42.686Z,100338.06
2023-05-13T17:51:11.115Z,100338.06
2023-05-13T17:53:37.571Z,100341.97
2023-05-13T17:56:04.627Z,100328.78
2023-05-13T17:58:31.160Z,100332.75
2023-05-13T18:00:57.697Z,100328.50
2023-05-13T18:03:24.261Z,100335.00
2023-05-13T18:05:51.090Z,100333.00
2023-05-13T18:08:17.639Z,100336.69
2023-05-13T18:10:44.265Z,100340.84
2023-05-13T18:13:11.549Z,100336.13
2023-05-13T18:15:38.167Z,100328.69
2023-05-13T18:18:05.135Z,100337.09
2023-05-13T18:20:32.786Z,100331.41
2023-05-13T18:23:00.181Z,100342.25
2023-05-13T18:25:26.744Z,100330.78
2023-05-13T18:27:54.050Z,100334.84
2023-05-13T18:30:21.173Z,100334.47
2023-05-13T18:32:48.224Z,100334.03
2023-05-13T18:35:16.077Z,100333.38
2023-05-13T18:37:42.807Z,100331.75
2023-05-13T18:40:09.811Z,100339.78
2023-05-13T18:42:36.270Z,100341.41
2023-05-13T18:45:02.799Z,100340.53
2023-05-13T18:47:29.732Z,100344.97
2023-05-13T18:49:56.325Z,100342.66
2023-05-13T18:52:22.942Z,100352.63
2023-05-13T18:54:51.146Z,100340.38
2023-05-13T18:57:20.676Z,100349.06
2023-05-13T18:59:47.204Z,100342.38
2023-05-13T19:02:13.765Z,100347.25
2023-05-13T19:04:40.867Z,100353.94
2023-05-13T19:07:08.478Z,100359.69
2023-05-13T19:09:36.024Z,100360.72
2023-05-13T19:12:02.937Z,100361.38
2023-05-13T19:14:29.407Z,100369.44
2023-05-13T19:16:56.364Z,100366.91
2023-05-13T19:19:24.161Z,100369.47
2023-05-13T19:21:50.628Z,100374.81
2023-05-13T19:24:17.087Z,100366.19
2023-05-13T19:26:43.694Z,100380.69
2023-05-13T19:29:10.305Z,100381.19
2023-05-13T19:31:37.342Z,100373.44
2023-05-13T19:34:03.942Z,100379.94
2023-05-13T19:36:31.205Z,100374.53
2023-05-13T19:38:57.714Z,100371.63
2023-05-13T19:41:24.283Z,100374.78
2023-05-13T19:43:50.830Z,100370.75
2023-05-13T19:46:17.500Z,100370.75
2023-05-13T19:48:44.075Z,100373.00
2023-05-13T19:51:10.666Z,100373.44
2023-05-13T19:53:37.541Z,100373.97
2023-05-13T19:56:04.268Z,100370.41
2023-05-13T19:58:30.768Z,100373.38
2023-05-13T20:00:58.123Z,100378.69
2023-05-13T20:03:24.663Z,100376.84
2023-05-13T20:05:53.076Z,100388.03
2023-05-13T20:08:20.852Z,100383.31
2023-05-13T20:10:47.388Z,100386.78
2023-05-13T20:13:13.883Z,100381.16
2023-05-13T20:15:41.700Z,100371.38
2023-05-13T20:18:08.414Z,100380.63
2023-05-13T20:20:35.407Z,100376.16
2023-05-13T20:23:01.969Z,100376.66
2023-05-13T20:25:28.470Z,100363.88
2023-05-13T20:27:55.018Z,100372.00
2023-05-13T20:30:22.293Z,100375.03
2023-05-13T20:32:49.043Z,100367.13
2023-05-13T20:35:15.860Z,100365.75
2023-05-13T20:37:43.151Z,100370.97
2023-05-13T20:40:10.092Z,100372.13
2023-05-13T20:42:36.588Z,100376.78
2023-05-13T20:45:04.299Z,100374.09
2023-05-13T20:47:31.277Z,100378.06
2023-05-13T20:49:58.063Z,100374.34
2023-05-13T20:52:25.091Z,100377.94
2023-05-13T20:54:51.670Z,100379.34
2023-05-13T20:57:18.523Z,100371.78
2023-05-13T20:59:45.341Z,100368.06
2023-05-13T21:02:11.975Z,100382.38
2023-05-13T21:04:38.411Z,100376.69
2023-05-13T21:07:06.789Z,100376.19
2023-05-13T21:09:33.629Z,100367.72
2023-05-13T21:12:00.264Z,100368.88
2023-05-13T21:14:26.785Z,100376.91
2023-05-13T21:16:53.383Z,100374.56
2023-05-13T21:19:24.144Z,100371.31
2023-05-13T21:21:51.148Z,100367.56
2023-05-13T21:24:18.768Z,100370.13
2023-05-13T21:26:46.149Z,100370.50
2023-05-13T21:29:12.650Z,100369.34
2023-05-13T21:31:42.566Z,100371.19
2023-05-13T21:34:09.159Z,100368.75
2023-05-13T21:36:38.848Z,100368.84
2023-05-13T21:39:10.355Z,100372.56
2023-05-13T21:41:37.094Z,100369.63
2023-05-13T21:44:03.722Z,100362.16
2023-05-13T21:46:30.406Z,100360.97
2023-05-13T21:49:02.384Z,100361.91
2023-05-13T21:51:29.214Z,100361.19
2023-05-13T21:53:55.813Z,100362.34
2023-05-13T21:56:22.554Z,100356.31
2023-05-13T21:58:49.862Z,100368.41
2023-05-13T22:01:16.698Z,100364.44
2023-05-13T22:03:43.618Z,100367.22
2023-05-13T22:06:10.483Z,100355.69
2023-05-13T22:08:37.478Z,100362.91
2023-05-13T22:11:04.044Z,100365.34
2023-05-13T22:13:30.647Z,100354.06
2023-05-13T22:15:57.101Z,100364.44
2023-05-13T22:18:23.902Z,100357.13
2023-05-13T22:20:51.326Z,100351.34
2023-05-13T22:23:17.745Z,100360.88
2023-05-13T22:25:44.357Z,100359.59
2023-05-13T22:28:10.968Z,100359.59
2023-05-13T22:30:37.408Z,100359.97
2023-05-13T22:33:04.074Z,100360.06
2023-05-13T22:35:31.903Z,100357.72
2023-05-13T22:37:58.388Z,100352.16
2023-05-13T22:40:25.105Z,100353.41
2023-05-13T22:42:51.984Z,100349.81
2023-05-13T22:45:18.684Z,100348.19
2023-05-13T22:47:45.217Z,100342.16
2023-05-13T22:50:12.449Z,100354.47
2023-05-13T22:52:39.462Z,100346.81
2023-05-13T22:55:07.054Z,100351.13
2023-05-13T22:57:33.609Z,100345.44
2023-05-13T23:00:00.220Z,100351.75
2023-05-13T23:02:27.446Z,100347.31
2023-05-13T23:04:53.933Z,100340.72
2023-05-13T23:07:20.432Z,100338.28
2023-05-13T23:09:46.957Z,100349.00
2023-05-13T23:12:13.621Z,100338.75
2023-05-13T23:14:40.768Z,100339.56
2023-05-13T23:17:08.208Z,100339.19
2023-05-13T23:19:35.465Z,100336.41
2023-05-13T23:22:03.820Z,100336.88
2023-05-13T23:24:30.711Z,100334.53
2023-05-13T23:26:57.817Z,100334.88
2023-05-13T23:29:27.681Z,100328.38
2023-05-13T23:31:55.389Z,100321.06
2023-05-13T23:34:22.186Z,100313.06
2023-05-13T23:36:49.103Z,100310.72
2023-05-13T23:39:15.795Z,100318.50
2023-05-13T23:41:42.883Z,100310.00
2023-05-13T23:44:09.642Z,100303.97
2023-05-13T23:46:36.126Z,100308.03
2023-05-13T23:49:02.937Z,100298.28
2023-05-13T23:51:30.998Z,100303.28
2023-05-13T23:53:57.737Z,100294.09
2023-05-13T23:56:25.511Z,100295.97
2023-05-13T23:58:51.990Z,100299.13
